Time;durP1;ratioP1;P1;durP2;ratioP2;P2;SDS_P1;SDS_P2;PMS_P1;PMS_P2;Temp;Humidity;BMP_temperature;BMP_pressure;BME280_temperature;BME280_humidity;BME280_pressure;Samples;Min_cycle;Max_cycle;Signal;HPM_P1;HPM_P2
2023/10/09 00:03:27;;;;;;;25.00;17.70;;;;;;;-128.00;-1.00;-1.00;105882;1249;1063347;-71
2023/10/09 00:05:55;;;;;;;27.50;20.20;;;;;;;-128.00;-1.00;-1.00;105883;1251;1004097;-71
2023/10/09 00:08:22;;;;;;;27.70;21.00;;;;;;;-128.00;-1.00;-1.00;105812;1254;1004575;-72
2023/10/09 00:10:52;;;;;;;26.90;20.50;;;;;;;-128.00;-1.00;-1.00;105967;1250;1004916;-71
2023/10/09 00:13:28;;;;;;;25.90;18.50;;;;;;;-128.00;-1.00;-1.00;105917;1250;1056240;-71
2023/10/09 00:15:59;;;;;;;25.40;19.00;;;;;;;-128.00;-1.00;-1.00;105925;1250;1059742;-71
2023/10/09 00:18:29;;;;;;;29.30;19.20;;;;;;;-128.00;-1.00;-1.00;105816;1251;1045236;-71
2023/10/09 00:21:12;;;;;;;29.00;20.20;;;;;;;-128.00;-1.00;-1.00;105919;1254;1047239;-72
2023/10/09 00:23:40;;;;;;;29.70;19.50;;;;;;;-128.00;-1.00;-1.00;105920;1250;1061266;-71
2023/10/09 00:26:12;;;;;;;28.20;20.30;;;;;;;-128.00;-1.00;-1.00;105740;1250;1004975;-71
2023/10/09 00:28:47;;;;;;;31.80;22.60;;;;;;;-128.00;-1.00;-1.00;105878;1251;1059000;-72
2023/10/09 00:31:26;;;;;;;33.10;25.90;;;;;;;-128.00;-1.00;-1.00;105907;1250;1045882;-71
2023/10/09 00:33:54;;;;;;;30.00;21.80;;;;;;;-128.00;-1.00;-1.00;105913;1250;1046831;-71
2023/10/09 00:36:28;;;;;;;30.90;23.40;;;;;;;-128.00;-1.00;-1.00;105966;1253;1005145;-71
2023/10/09 00:38:54;;;;;;;30.50;24.10;;;;;;;-128.00;-1.00;-1.00;105944;1251;1056188;-71
2023/10/09 00:41:24;;;;;;;27.50;21.20;;;;;;;-128.00;-1.00;-1.00;105933;1251;1003816;-72
2023/10/09 00:43:52;;;;;;;30.70;22.00;;;;;;;-128.00;-1.00;-1.00;105875;1253;1046982;-72
2023/10/09 00:48:49;;;;;;;31.60;23.90;;;;;;;-128.00;-1.00;-1.00;105929;1250;1061438;-71
2023/10/09 00:51:18;;;;;;;33.00;23.80;;;;;;;-128.00;-1.00;-1.00;105934;1249;1056705;-72
2023/10/09 00:53:51;;;;;;;31.50;23.40;;;;;;;-128.00;-1.00;-1.00;105874;1251;1004478;-72
2023/10/09 00:56:20;;;;;;;30.90;24.60;;;;;;;-128.00;-1.00;-1.00;105922;1250;1047130;-70
2023/10/09 01:01:56;;;;;;;31.80;24.50;;;;;;;-128.00;-1.00;-1.00;105726;1249;1061842;-73
2023/10/09 01:04:29;;;;;;;28.70;22.90;;;;;;;-128.00;-1.00;-1.00;105965;1250;1054441;-70
2023/10/09 01:09:55;;;;;;;26.80;21.40;;;;;;;-128.00;-1.00;-1.00;105421;1257;1045348;-72
2023/10/09 01:12:22;;;;;;;25.80;20.60;;;;;;;-128.00;-1.00;-1.00;105426;1258;1003392;-71
2023/10/09 01:14:52;;;;;;;30.60;24.10;;;;;;;-128.00;-1.00;-1.00;105410;1258;1004286;-70
2023/10/09 01:17:35;;;;;;;30.10;24.30;;;;;;;-128.00;-1.00;-1.00;105426;1259;1056350;-70
2023/10/09 01:20:04;;;;;;;31.20;25.20;;;;;;;-128.00;-1.00;-1.00;105394;1256;1059389;-71
2023/10/09 01:22:31;;;;;;;34.00;25.10;;;;;;;-128.00;-1.00;-1.00;105302;1258;1046301;-71
2023/10/09 01:24:57;;;;;;;31.70;24.40;;;;;;;-128.00;-1.00;-1.00;105432;1257;1004464;-72
2023/10/09 01:27:32;;;;;;;30.30;22.90;;;;;;;-128.00;-1.00;-1.00;105399;1256;1003967;-71
2023/10/09 01:29:59;;;;;;;30.80;23.30;;;;;;;-128.00;-1.00;-1.00;105154;1257;1056617;-71
2023/10/09 01:32:26;;;;;;;30.00;22.70;;;;;;;-128.00;-1.00;-1.00;105410;1258;1004663;-71
2023/10/09 01:34:54;;;;;;;35.20;23.90;;;;;;;-128.00;-1.00;-1.00;105431;1257;1004086;-71
2023/10/09 01:37:30;;;;;;;31.90;23.90;;;;;;;-128.00;-1.00;-1.00;105456;1256;1003822;-70
2023/10/09 01:39:59;;;;;;;31.60;25.10;;;;;;;-128.00;-1.00;-1.00;105421;1256;1062472;-70
2023/10/09 01:44:52;;;;;;;29.10;22.60;;;;;;;-128.00;-1.00;-1.00;105399;1251;1004826;-71
2023/10/09 01:47:21;;;;;;;28.00;22.30;;;;;;;-128.00;-1.00;-1.00;105892;1251;1004710;-71
2023/10/09 01:49:53;;;;;;;32.10;22.60;;;;;;;-128.00;-1.00;-1.00;105931;1250;1046918;-71
2023/10/09 01:52:20;;;;;;;30.90;23.20;;;;;;;-128.00;-1.00;-1.00;105926;1250;1062612;-71
2023/10/09 01:54:50;;;;;;;32.60;25.10;;;;;;;-128.00;-1.00;-1.00;105939;1251;1004353;-71
2023/10/09 01:57:22;;;;;;;34.20;24.40;;;;;;;-128.00;-1.00;-1.00;105944;1251;1059128;-71
2023/10/09 01:59:50;;;;;;;34.30;25.20;;;;;;;-128.00;-1.00;-1.00;105700;1250;1046308;-70
2023/10/09 02:05:06;;;;;;;30.90;24.00;;;;;;;-128.00;-1.00;-1.00;105896;1251;1061968;-70
2023/10/09 02:07:51;;;;;;;29.20;23.50;;;;;;;-128.00;-1.00;-1.00;105970;1250;1055364;-71
2023/10/09 02:10:31;;;;;;;29.90;24.00;;;;;;;-128.00;-1.00;-1.00;105936;1251;1059111;-71
2023/10/09 02:13:11;;;;;;;34.00;23.90;;;;;;;-128.00;-1.00;-1.00;105927;1251;1046334;-71
2023/10/09 02:18:18;;;;;;;27.00;21.40;;;;;;;-128.00;-1.00;-1.00;105947;1250;1060916;-70
2023/10/09 02:20:45;;;;;;;27.40;20.00;;;;;;;-128.00;-1.00;-1.00;105724;1250;1056496;-70
2023/10/09 02:23:13;;;;;;;27.80;21.80;;;;;;;-128.00;-1.00;-1.00;105787;1251;1004729;-70
2023/10/09 02:25:43;;;;;;;28.40;22.40;;;;;;;-128.00;-1.00;-1.00;105712;1251;1005543;-70
2023/10/09 02:28:17;;;;;;;29.00;23.20;;;;;;;-128.00;-1.00;-1.00;105796;1251;1048753;-70
2023/10/09 02:30:48;;;;;;;25.90;21.30;;;;;;;-128.00;-1.00;-1.00;105848;1251;1061766;-71
2023/10/09 02:33:27;;;;;;;28.70;21.50;;;;;;;-128.00;-1.00;-1.00;105914;1253;1055757;-70
2023/10/09 02:35:55;;;;;;;29.70;22.20;;;;;;;-128.00;-1.00;-1.00;105891;1251;1059364;-71
2023/10/09 02:38:23;;;;;;;32.60;22.10;;;;;;;-128.00;-1.00;-1.00;105945;1249;1004781;-70
2023/10/09 02:41:20;;;;;;;24.20;20.40;;;;;;;-128.00;-1.00;-1.00;105902;1250;1046495;-70
2023/10/09 02:43:47;;;;;;;26.50;21.00;;;;;;;-128.00;-1.00;-1.00;105720;1251;1061882;-70
2023/10/09 02:46:35;;;;;;;28.10;22.00;;;;;;;-128.00;-1.00;-1.00;105948;1250;1004179;-70
2023/10/09 02:49:03;;;;;;;27.20;22.30;;;;;;;-128.00;-1.00;-1.00;105887;1250;1059616;-71
2023/10/09 02:51:33;;;;;;;28.00;22.10;;;;;;;-128.00;-1.00;-1.00;105950;1250;1044786;-71
2023/10/09 02:54:48;;;;;;;27.40;21.90;;;;;;;-128.00;-1.00;-1.00;105946;1249;1046150;-71
2023/10/09 02:57:05;;;;;;;27.20;21.80;;;;;;;-128.00;-1.00;-1.00;105814;1249;1061539;-71
2023/10/09 02:59:32;;;;;;;30.20;23.90;;;;;;;-128.00;-1.00;-1.00;105908;1250;1056159;-71
2023/10/09 03:02:02;;;;;;;29.90;23.40;;;;;;;-128.00;-1.00;-1.00;105754;1250;1005545;-71
2023/10/09 03:04:31;;;;;;;28.40;24.10;;;;;;;-128.00;-1.00;-1.00;105945;1250;1045998;-71
2023/10/09 03:06:58;;;;;;;35.40;26.10;;;;;;;-128.00;-1.00;-1.00;105972;1250;1047485;-71
2023/10/09 03:09:28;;;;;;;35.80;25.00;;;;;;;-128.00;-1.00;-1.00;105959;1249;1003643;-70
2023/10/09 03:12:01;;;;;;;;;;;;;;;-128.00;-1.00;-1.00;105941;1251;1057685;-71
2023/10/09 03:14:30;;;;;;;30.80;23.60;;;;;;;-128.00;-1.00;-1.00;105896;1249;1059524;-71
2023/10/09 03:16:57;;;;;;;30.10;24.10;;;;;;;-128.00;-1.00;-1.00;105949;1249;1045998;-71
2023/10/09 03:19:26;;;;;;;29.90;23.40;;;;;;;-128.00;-1.00;-1.00;105885;1249;1005050;-71
2023/10/09 03:21:53;;;;;;;28.70;23.00;;;;;;;-128.00;-1.00;-1.00;105919;1250;1061264;-71
2023/10/09 03:24:22;;;;;;;26.80;21.50;;;;;;;-128.00;-1.00;-1.00;105980;1249;1006040;-70
2023/10/09 03:26:49;;;;;;;26.50;20.80;;;;;;;-128.00;-1.00;-1.00;105909;1249;1059356;-71
2023/10/09 03:29:19;;;;;;;28.40;21.60;;;;;;;-128.00;-1.00;-1.00;105929;1249;1004533;-71
2023/10/09 03:31:46;;;;;;;29.20;21.20;;;;;;;-128.00;-1.00;-1.00;105926;1251;1047140;-71
2023/10/09 03:34:14;;;;;;;27.90;21.50;;;;;;;-128.00;-1.00;-1.00;105948;1250;1003946;-71
2023/10/09 03:36:40;;;;;;;27.00;22.30;;;;;;;-128.00;-1.00;-1.00;105947;1250;1003909;-71
2023/10/09 03:41:54;;;;;;;27.50;21.70;;;;;;;-128.00;-1.00;-1.00;105910;1251;1045290;-71
2023/10/09 03:44:20;;;;;;;24.80;22.00;;;;;;;-128.00;-1.00;-1.00;105917;1250;1047255;-71
2023/10/09 03:46:51;;;;;;;27.30;22.10;;;;;;;-128.00;-1.00;-1.00;105984;1251;1004696;-72
2023/10/09 03:49:23;;;;;;;26.30;22.30;;;;;;;-128.00;-1.00;-1.00;105974;1250;1055945;-71
2023/10/09 03:51:50;;;;;;;29.00;24.30;;;;;;;-128.00;-1.00;-1.00;105961;1249;1059421;-71
2023/10/09 03:54:20;;;;;;;32.00;25.00;;;;;;;-128.00;-1.00;-1.00;105945;1250;1003990;-71
2023/10/09 03:56:49;;;;;;;29.60;23.80;;;;;;;-128.00;-1.00;-1.00;105942;1250;1047626;-71
2023/10/09 03:59:19;;;;;;;29.50;24.80;;;;;;;-128.00;-1.00;-1.00;105935;1251;1062122;-69
2023/10/09 04:01:50;;;;;;;29.90;24.10;;;;;;;-128.00;-1.00;-1.00;105954;1249;1054917;-71
2023/10/09 04:04:17;;;;;;;27.40;22.30;;;;;;;-128.00;-1.00;-1.00;105935;1250;1059567;-71
2023/10/09 04:06:43;;;;;;;25.80;20.60;;;;;;;-128.00;-1.00;-1.00;105919;1249;1004385;-71
2023/10/09 04:11:50;;;;;;;31.80;23.80;;;;;;;-128.00;-1.00;-1.00;105919;1250;1063285;-71
2023/10/09 04:14:26;;;;;;;28.30;22.20;;;;;;;-128.00;-1.00;-1.00;105957;1250;1055066;-71
2023/10/09 04:16:56;;;;;;;28.80;22.90;;;;;;;-128.00;-1.00;-1.00;105920;1249;1058957;-71
2023/10/09 04:19:22;;;;;;;;;;;;;;;-128.00;-1.00;-1.00;105970;1249;1047142;-71
2023/10/09 04:21:49;;;;;;;26.50;20.30;;;;;;;-128.00;-1.00;-1.00;105962;1250;1004458;-71
2023/10/09 04:26:46;;;;;;;32.10;26.90;;;;;;;-128.00;-1.00;-1.00;105945;1250;1004671;-68
2023/10/09 04:29:26;;;;;;;28.70;23.50;;;;;;;-128.00;-1.00;-1.00;105915;1250;1060187;-71
2023/10/09 04:31:55;;;;;;;23.90;19.40;;;;;;;-128.00;-1.00;-1.00;105961;1250;1046554;-71
2023/10/09 04:37:00;;;;;;;23.00;18.50;;;;;;;-128.00;-1.00;-1.00;105958;1250;1061822;-70
2023/10/09 04:47:38;;;;;;;21.80;17.20;;;;;;;-128.00;-1.00;-1.00;106005;1249;1046931;-71
2023/10/09 04:50:36;;;;;;;23.90;18.40;;;;;;;-128.00;-1.00;-1.00;105965;1250;1063003;-70
2023/10/09 04:53:22;;;;;;;22.20;17.60;;;;;;;-128.00;-1.00;-1.00;105950;1249;1055336;-70
2023/10/09 04:55:55;;;;;;;19.20;16.90;;;;;;;-128.00;-1.00;-1.00;105930;1249;1058752;-72
2023/10/09 04:58:25;;;;;;;23.40;18.70;;;;;;;-128.00;-1.00;-1.00;105186;1249;1045962;-69
2023/10/09 05:03:42;;;;;;;21.20;17.10;;;;;;;-128.00;-1.00;-1.00;105684;1250;1062111;-70
2023/10/09 05:06:42;;;;;;;21.60;17.40;;;;;;;-128.00;-1.00;-1.00;105905;1249;1054974;-70
2023/10/09 05:09:09;;;;;;;19.70;17.20;;;;;;;-128.00;-1.00;-1.00;105888;1250;1059068;-70
2023/10/09 05:14:26;;;;;;;20.90;17.60;;;;;;;-128.00;-1.00;-1.00;105985;1249;1047349;-72
2023/10/09 05:16:54;;;;;;;20.20;16.30;;;;;;;-128.00;-1.00;-1.00;105912;1249;1060625;-72
2023/10/09 05:19:41;;;;;;;19.40;16.10;;;;;;;-128.00;-1.00;-1.00;105997;1249;1004058;-70
2023/10/09 05:22:29;;;;;;;20.40;16.50;;;;;;;-128.00;-1.00;-1.00;105913;1249;1060325;-70
2023/10/09 05:24:57;;;;;;;17.10;15.30;;;;;;;-128.00;-1.00;-1.00;105931;1249;1045748;-70
2023/10/09 05:30:24;;;;;;;27.90;24.70;;;;;;;-128.00;-1.00;-1.00;105935;1250;1060919;-70
2023/10/09 05:32:55;;;;;;;25.10;20.70;;;;;;;-128.00;-1.00;-1.00;105812;1249;1055442;-69
2023/10/09 05:35:39;;;;;;;26.90;21.00;;;;;;;-128.00;-1.00;-1.00;105944;1249;1059421;-71
2023/10/09 05:38:15;;;;;;;29.20;23.80;;;;;;;-128.00;-1.00;-1.00;105941;1249;1045431;-71
2023/10/09 05:40:43;;;;;;;30.20;25.00;;;;;;;-128.00;-1.00;-1.00;105977;1249;1046545;-70
2023/10/09 05:44:45;;;;;;;34.50;21.80;;;;;;;-128.00;-1.00;-1.00;105937;1249;1060681;-70
2023/10/09 05:46:07;;;;;;;28.60;20.40;;;;;;;-128.00;-1.00;-1.00;105953;1249;1055652;-70
2023/10/09 06:04:18;;;;;;;21.30;18.20;;;;;;;-128.00;-1.00;-1.00;105904;1249;1045659;-70
2023/10/09 06:06:45;;;;;;;18.10;16.20;;;;;;;-128.00;-1.00;-1.00;105897;1250;1004496;-70
2023/10/09 06:17:01;;;;;;;20.70;15.60;;;;;;;-128.00;-1.00;-1.00;105975;1249;1046256;-70
2023/10/09 06:19:28;;;;;;;17.40;14.80;;;;;;;-128.00;-1.00;-1.00;105986;1249;1047256;-70
2023/10/09 06:24:43;;;;;;;18.00;13.50;;;;;;;-128.00;-1.00;-1.00;105959;1250;1055524;-70
2023/10/09 06:34:53;;;;;;;12.40;10.50;;;;;;;-128.00;-1.00;-1.00;105956;1249;1062690;-70
2023/10/09 06:45:09;;;;;;;15.80;12.30;;;;;;;-128.00;-1.00;-1.00;105822;1249;1049261;-72
2023/10/09 06:47:42;;;;;;;14.60;11.90;;;;;;;-128.00;-1.00;-1.00;105914;1249;1061588;-72
2023/10/09 06:53:19;;;;;;;13.90;11.90;;;;;;;-128.00;-1.00;-1.00;105954;1249;1058626;-71
2023/10/09 06:55:48;;;;;;;14.90;11.40;;;;;;;-128.00;-1.00;-1.00;105814;1249;1047880;-72
2023/10/09 06:58:41;;;;;;;12.50;11.20;;;;;;;-128.00;-1.00;-1.00;105958;1249;1046715;-73
2023/10/09 07:04:10;;;;;;;12.30;11.00;;;;;;;-128.00;-1.00;-1.00;105230;1257;1057167;-72
2023/10/09 07:14:32;;;;;;;20.30;16.50;;;;;;;-128.00;-1.00;-1.00;105222;1256;1060835;-71
2023/10/09 07:17:00;;;;;;;23.00;16.70;;;;;;;-128.00;-1.00;-1.00;105224;1256;1056296;-71
2023/10/09 07:22:04;;;;;;;26.40;23.50;;;;;;;-128.00;-1.00;-1.00;105230;1256;1047696;-71
2023/10/09 07:27:43;;;;;;;24.30;16.80;;;;;;;-128.00;-1.00;-1.00;105221;1256;1061467;-70
2023/10/09 07:33:16;;;;;;;20.70;16.90;;;;;;;-128.00;-1.00;-1.00;105164;1256;1058828;-71
2023/10/09 07:35:54;;;;;;;21.50;16.10;;;;;;;-128.00;-1.00;-1.00;105217;1257;1045037;-70
2023/10/09 07:38:28;;;;;;;20.50;17.00;;;;;;;-128.00;-1.00;-1.00;105237;1257;1047230;-72
2023/10/09 07:40:56;;;;;;;18.80;16.70;;;;;;;-128.00;-1.00;-1.00;105555;1249;1060541;-74
2023/10/09 07:43:28;;;;;;;20.40;17.10;;;;;;;-128.00;-1.00;-1.00;105964;1249;1005424;-70
2023/10/09 07:48:38;;;;;;;24.10;18.70;;;;;;;-128.00;-1.00;-1.00;105992;1249;1044438;-70
2023/10/09 07:51:12;;;;;;;17.80;14.10;;;;;;;-128.00;-1.00;-1.00;105967;1249;1046638;-70
2023/10/09 07:53:44;;;;;;;18.00;14.20;;;;;;;-128.00;-1.00;-1.00;105964;1249;1061131;-70
2023/10/09 07:56:13;;;;;;;15.80;13.00;;;;;;;-128.00;-1.00;-1.00;105990;1249;1056146;-70
2023/10/09 07:58:46;;;;;;;15.80;12.60;;;;;;;-128.00;-1.00;-1.00;105890;1250;1059346;-70
2023/10/09 08:01:22;;;;;;;14.20;12.00;;;;;;;-128.00;-1.00;-1.00;105771;1249;1045603;-70
2023/10/09 08:04:01;;;;;;;13.20;11.40;;;;;;;-128.00;-1.00;-1.00;105986;1249;1047286;-70
2023/10/09 08:06:38;;;;;;;10.10;8.80;;;;;;;-128.00;-1.00;-1.00;106004;1250;1061854;-70
2023/10/09 08:11:59;;;;;;;10.70;9.20;;;;;;;-128.00;-1.00;-1.00;105920;1249;1058445;-70
2023/10/09 08:20:12;;;;;;;9.30;6.70;;;;;;;-128.00;-1.00;-1.00;105127;1257;1061664;-71
2023/10/09 08:22:52;;;;;;;12.10;10.90;;;;;;;-128.00;-1.00;-1.00;105321;1256;1055574;-71
2023/10/09 08:25:35;;;;;;;10.50;9.00;;;;;;;-128.00;-1.00;-1.00;105310;1256;1058609;-69
2023/10/09 08:36:22;;;;;;;7.30;4.60;;;;;;;-128.00;-1.00;-1.00;105295;1256;1056574;-71
2023/10/09 08:38:41;;;;;;;5.90;4.00;;;;;;;-128.00;-1.00;-1.00;105339;1256;1058972;-70
2023/10/09 08:41:18;;;;;;;4.60;3.30;;;;;;;-128.00;-1.00;-1.00;105315;1256;1003703;-70
2023/10/09 08:43:51;;;;;;;4.10;3.20;;;;;;;-128.00;-1.00;-1.00;105330;1256;1046516;-71
2023/10/09 08:46:20;;;;;;;4.30;3.20;;;;;;;-128.00;-1.00;-1.00;105231;1257;1061497;-69
2023/10/09 08:48:47;;;;;;;4.50;2.90;;;;;;;-128.00;-1.00;-1.00;105335;1256;1055316;-71
2023/10/09 08:51:16;;;;;;;3.30;3.00;;;;;;;-128.00;-1.00;-1.00;105308;1256;1005060;-71
2023/10/09 08:53:43;;;;;;;6.80;3.70;;;;;;;-128.00;-1.00;-1.00;105512;1249;1045344;-72
2023/10/09 08:56:10;;;;;;;9.50;6.70;;;;;;;-128.00;-1.00;-1.00;105975;1249;1005205;-73
2023/10/09 08:58:38;;;;;;;6.80;5.70;;;;;;;-128.00;-1.00;-1.00;105808;1250;1003506;-72
2023/10/09 09:01:04;;;;;;;7.60;5.70;;;;;;;-128.00;-1.00;-1.00;105890;1250;1004588;-71
2023/10/09 09:03:43;;;;;;;9.30;7.40;;;;;;;-128.00;-1.00;-1.00;105754;1249;1004206;-72
2023/10/09 09:06:11;;;;;;;9.70;7.70;;;;;;;-128.00;-1.00;-1.00;105919;1249;1045421;-72
2023/10/09 09:08:39;;;;;;;6.80;5.10;;;;;;;-128.00;-1.00;-1.00;105907;1249;1046903;-70
2023/10/09 09:14:06;;;;;;;4.40;3.00;;;;;;;-128.00;-1.00;-1.00;105933;1250;1056918;-79
2023/10/09 09:16:36;;;;;;;3.90;3.00;;;;;;;-128.00;-1.00;-1.00;105800;1249;1058306;-71
2023/10/09 09:19:17;;;;;;;4.50;3.50;;;;;;;-128.00;-1.00;-1.00;105878;1250;1046839;-70
2023/10/09 09:21:56;;;;;;;5.10;3.90;;;;;;;-128.00;-1.00;-1.00;105919;1249;1047149;-70
2023/10/09 09:26:59;;;;;;;9.10;6.00;;;;;;;-128.00;-1.00;-1.00;105925;1249;1004827;-70
2023/10/09 09:29:36;;;;;;;18.20;13.80;;;;;;;-128.00;-1.00;-1.00;105735;1249;1060398;-70
2023/10/09 09:32:20;;;;;;;14.30;10.90;;;;;;;-128.00;-1.00;-1.00;105908;1249;1045732;-70
2023/10/09 09:34:54;;;;;;;9.70;7.30;;;;;;;-128.00;-1.00;-1.00;105788;1249;1048112;-70
2023/10/09 09:37:31;;;;;;;11.50;8.80;;;;;;;-128.00;-1.00;-1.00;105919;1249;1062248;-70
2023/10/09 09:40:00;;;;;;;9.40;8.10;;;;;;;-128.00;-1.00;-1.00;105956;1249;1055999;-71
2023/10/09 09:42:31;;;;;;;8.40;7.50;;;;;;;-128.00;-1.00;-1.00;105754;1249;1059793;-71
2023/10/09 09:45:01;;;;;;;8.20;6.40;;;;;;;-128.00;-1.00;-1.00;105929;1249;1045495;-71
2023/10/09 09:47:35;;;;;;;3.90;2.80;;;;;;;-128.00;-1.00;-1.00;105896;1250;1046171;-70
2023/10/09 09:50:11;;;;;;;5.30;3.10;;;;;;;-128.00;-1.00;-1.00;105960;1249;1061254;-70
2023/10/09 09:52:38;;;;;;;7.10;3.80;;;;;;;-128.00;-1.00;-1.00;105900;1249;1055783;-71
2023/10/09 09:55:14;;;;;;;4.40;3.50;;;;;;;-128.00;-1.00;-1.00;105931;1249;1003923;-71
2023/10/09 09:57:41;;;;;;;5.60;3.70;;;;;;;-128.00;-1.00;-1.00;105751;1249;1046262;-71
2023/10/09 10:00:29;;;;;;;5.40;4.50;;;;;;;-128.00;-1.00;-1.00;105934;1249;1005761;-71
2023/10/09 10:03:05;;;;;;;4.40;3.60;;;;;;;-128.00;-1.00;-1.00;105936;1249;1061252;-71
2023/10/09 10:05:33;;;;;;;4.10;3.50;;;;;;;-128.00;-1.00;-1.00;105921;1249;1055759;-72
2023/10/09 10:08:04;;;;;;;4.00;3.20;;;;;;;-128.00;-1.00;-1.00;105947;1249;1003805;-71
2023/10/09 10:10:47;;;;;;;4.30;3.40;;;;;;;-128.00;-1.00;-1.00;105859;1250;1046953;-70
2023/10/09 10:13:15;;;;;;;5.20;3.60;;;;;;;-128.00;-1.00;-1.00;105704;1249;1046428;-71
2023/10/09 10:16:11;;;;;;;5.90;4.30;;;;;;;-128.00;-1.00;-1.00;105939;1249;1004265;-70
2023/10/09 10:19:21;;;;;;;5.40;3.60;;;;;;;-128.00;-1.00;-1.00;105891;1249;1055129;-70
2023/10/09 10:21:54;;;;;;;4.90;3.30;;;;;;;-128.00;-1.00;-1.00;105935;1249;1060437;-69
2023/10/09 10:24:30;;;;;;;3.30;2.80;;;;;;;-128.00;-1.00;-1.00;105938;1249;1047562;-71
2023/10/09 10:27:24;;;;;;;3.70;3.00;;;;;;;-128.00;-1.00;-1.00;105939;1249;1050425;-69
2023/10/09 10:30:11;;;;;;;4.60;3.90;;;;;;;-128.00;-1.00;-1.00;106005;1249;1060990;-70
2023/10/09 10:32:53;;;;;;;4.50;3.20;;;;;;;-128.00;-1.00;-1.00;105959;1250;1054981;-70
2023/10/09 10:35:32;;;;;;;5.30;3.90;;;;;;;-128.00;-1.00;-1.00;105925;1249;1061226;-69
2023/10/09 10:40:46;;;;;;;4.40;3.50;;;;;;;-128.00;-1.00;-1.00;105941;1249;1047167;-69
2023/10/09 10:43:47;;;;;;;5.10;3.80;;;;;;;-128.00;-1.00;-1.00;105925;1249;1064048;-69
2023/10/09 10:46:15;;;;;;;3.50;2.90;;;;;;;-128.00;-1.00;-1.00;105946;1249;1055955;-69
2023/10/09 10:48:46;;;;;;;5.10;3.20;;;;;;;-128.00;-1.00;-1.00;105918;1249;1059212;-68
2023/10/09 10:51:21;;;;;;;4.80;4.40;;;;;;;-128.00;-1.00;-1.00;106011;1249;1044932;-70
2023/10/09 10:54:26;;;;;;;7.70;5.20;;;;;;;-128.00;-1.00;-1.00;105941;1250;1050035;-69
2023/10/09 10:56:38;;;;;;;;;;;;;;;-128.00;-1.00;-1.00;105978;1249;1061389;-69
2023/10/09 11:07:09;;;;;;;12.50;7.50;;;;;;;-128.00;-1.00;-1.00;105952;1249;1047172;-69
2023/10/09 11:09:57;;;;;;;14.70;8.40;;;;;;;-128.00;-1.00;-1.00;105810;1249;1061928;-69
2023/10/09 11:12:37;;;;;;;10.60;7.70;;;;;;;-128.00;-1.00;-1.00;105898;1249;1054854;-69
2023/10/09 11:15:06;;;;;;;7.00;5.60;;;;;;;-128.00;-1.00;-1.00;105949;1249;1059610;-69
2023/10/09 11:17:35;;;;;;;7.80;6.30;;;;;;;-128.00;-1.00;-1.00;105738;1249;1046030;-70
2023/10/09 11:20:31;;;;;;;9.70;6.10;;;;;;;-128.00;-1.00;-1.00;105949;1250;1047232;-73
2023/10/09 11:25:49;;;;;;;6.90;5.10;;;;;;;-128.00;-1.00;-1.00;105940;1250;1054814;-69
2023/10/09 11:31:11;;;;;;;3.80;3.20;;;;;;;-128.00;-1.00;-1.00;105905;1249;1045794;-69
2023/10/09 11:33:51;;;;;;;4.20;3.60;;;;;;;-128.00;-1.00;-1.00;105951;1249;1047852;-69
2023/10/09 11:36:31;;;;;;;5.10;3.60;;;;;;;-128.00;-1.00;-1.00;105957;1249;1062264;-69
2023/10/09 11:39:18;;;;;;;;;;;;;;;-128.00;-1.00;-1.00;105848;1249;1054905;-69
2023/10/09 11:41:45;;;;;;;3.80;3.10;;;;;;;-128.00;-1.00;-1.00;105921;1249;1058958;-70
2023/10/09 11:54:58;;;;;;;4.80;3.40;;;;;;;-128.00;-1.00;-1.00;105871;1249;1058875;-74
2023/10/09 11:57:31;;;;;;;5.30;4.40;;;;;;;-128.00;-1.00;-1.00;105917;1249;1003528;-69
2023/10/09 11:59:59;;;;;;;6.30;5.00;;;;;;;-128.00;-1.00;-1.00;105903;1249;1047233;-71
2023/10/09 12:02:27;;;;;;;5.90;5.30;;;;;;;-128.00;-1.00;-1.00;105983;1249;1003883;-70
2023/10/09 12:04:57;;;;;;;10.00;7.50;;;;;;;-128.00;-1.00;-1.00;105958;1250;1004338;-70
2023/10/09 12:07:25;;;;;;;18.10;9.00;;;;;;;-128.00;-1.00;-1.00;105941;1249;1059352;-70
2023/10/09 12:09:56;;;;;;;23.40;12.80;;;;;;;-128.00;-1.00;-1.00;105948;1249;1004712;-70
2023/10/09 12:12:26;;;;;;;16.20;9.10;;;;;;;-128.00;-1.00;-1.00;105927;1249;1048030;-70
2023/10/09 12:14:53;;;;;;;12.40;11.00;;;;;;;-128.00;-1.00;-1.00;105714;1250;1062480;-70
2023/10/09 12:17:21;;;;;;;18.20;14.30;;;;;;;-128.00;-1.00;-1.00;105933;1249;1004102;-70
2023/10/09 12:19:51;;;;;;;13.90;12.50;;;;;;;-128.00;-1.00;-1.00;105920;1249;1059092;-70
2023/10/09 12:22:20;;;;;;;11.80;8.10;;;;;;;-128.00;-1.00;-1.00;105896;1249;1005060;-70
2023/10/09 12:24:47;;;;;;;8.40;5.90;;;;;;;-128.00;-1.00;-1.00;105938;1249;1046588;-70
2023/10/09 12:27:14;;;;;;;4.20;3.70;;;;;;;-128.00;-1.00;-1.00;105927;1250;1003562;-70
2023/10/09 12:29:44;;;;;;;5.00;4.40;;;;;;;-128.00;-1.00;-1.00;105922;1249;1004464;-71
2023/10/09 12:32:11;;;;;;;5.10;4.60;;;;;;;-128.00;-1.00;-1.00;105891;1250;1059315;-72
2023/10/09 12:34:39;;;;;;;5.50;4.80;;;;;;;-128.00;-1.00;-1.00;105938;1249;1004921;-70
2023/10/09 12:37:06;;;;;;;5.10;4.00;;;;;;;-128.00;-1.00;-1.00;105939;1249;1003832;-70
2023/10/09 12:39:40;;;;;;;6.30;4.60;;;;;;;-128.00;-1.00;-1.00;105937;1249;1003325;-70
2023/10/09 12:42:06;;;;;;;6.00;4.40;;;;;;;-128.00;-1.00;-1.00;105943;1250;1055068;-69
2023/10/09 12:44:38;;;;;;;5.80;5.20;;;;;;;-128.00;-1.00;-1.00;105729;1250;1004225;-70
2023/10/09 12:47:06;;;;;;;7.10;6.10;;;;;;;-128.00;-1.00;-1.00;105933;1249;1044651;-70
2023/10/09 12:49:33;;;;;;;7.80;6.30;;;;;;;-128.00;-1.00;-1.00;105947;1249;1004460;-70
2023/10/09 12:51:59;;;;;;;7.20;5.80;;;;;;;-128.00;-1.00;-1.00;105905;1249;1004397;-70
2023/10/09 12:54:27;;;;;;;12.30;9.60;;;;;;;-128.00;-1.00;-1.00;105962;1249;1006224;-71
2023/10/09 12:56:57;;;;;;;10.50;8.80;;;;;;;-128.00;-1.00;-1.00;105930;1250;1005072;-70
2023/10/09 12:59:24;;;;;;;6.50;5.80;;;;;;;-128.00;-1.00;-1.00;105756;1249;1045828;-70
2023/10/09 13:01:57;;;;;;;8.40;6.40;;;;;;;-128.00;-1.00;-1.00;105925;1250;1004586;-70
2023/10/09 13:04:28;;;;;;;7.50;6.60;;;;;;;-128.00;-1.00;-1.00;105889;1251;1060597;-70
2023/10/09 13:07:01;;;;;;;6.50;5.80;;;;;;;-128.00;-1.00;-1.00;105877;1253;1055496;-70
2023/10/09 13:09:42;;;;;;;6.00;5.00;;;;;;;-128.00;-1.00;-1.00;105895;1249;1058614;-70
2023/10/09 13:12:14;;;;;;;6.10;5.20;;;;;;;-128.00;-1.00;-1.00;105891;1250;1044859;-70
2023/10/09 13:14:41;;;;;;;6.30;5.60;;;;;;;-128.00;-1.00;-1.00;105915;1249;1046984;-70
2023/10/09 13:17:10;;;;;;;7.20;5.70;;;;;;;-128.00;-1.00;-1.00;105916;1249;1004273;-70
2023/10/09 13:19:37;;;;;;;8.00;6.60;;;;;;;-128.00;-1.00;-1.00;105904;1250;1056112;-70
2023/10/09 13:22:12;;;;;;;8.60;6.90;;;;;;;-128.00;-1.00;-1.00;105923;1250;1004279;-70
2023/10/09 13:24:39;;;;;;;7.20;5.80;;;;;;;-128.00;-1.00;-1.00;105889;1250;1046283;-70
2023/10/09 13:27:09;;;;;;;7.80;6.80;;;;;;;-128.00;-1.00;-1.00;105921;1250;1004070;-70
2023/10/09 13:29:39;;;;;;;9.10;7.40;;;;;;;-128.00;-1.00;-1.00;105902;1249;1061251;-70
2023/10/09 13:32:13;;;;;;;10.40;7.30;;;;;;;-128.00;-1.00;-1.00;105872;1249;1056338;-70
2023/10/09 13:34:44;;;;;;;9.30;8.30;;;;;;;-128.00;-1.00;-1.00;105893;1249;1058719;-71
2023/10/09 13:37:14;;;;;;;10.20;8.20;;;;;;;-128.00;-1.00;-1.00;105730;1249;1046456;-70
2023/10/09 13:39:52;;;;;;;8.50;7.70;;;;;;;-128.00;-1.00;-1.00;106014;1249;1047728;-71
2023/10/09 13:42:18;;;;;;;9.20;8.00;;;;;;;-128.00;-1.00;-1.00;105891;1249;1061006;-70
2023/10/09 13:44:48;;;;;;;7.90;7.10;;;;;;;-128.00;-1.00;-1.00;105949;1250;1004012;-70
2023/10/09 13:47:19;;;;;;;9.80;8.90;;;;;;;-128.00;-1.00;-1.00;105874;1249;1058818;-70
2023/10/09 13:49:45;;;;;;;9.70;8.80;;;;;;;-128.00;-1.00;-1.00;105931;1253;1045373;-71
2023/10/09 13:52:18;;;;;;;9.40;8.60;;;;;;;-128.00;-1.00;-1.00;105909;1249;1003867;-70
2023/10/09 13:54:49;;;;;;;9.30;5.90;;;;;;;-128.00;-1.00;-1.00;105967;1250;1062549;-70
2023/10/09 13:57:16;;;;;;;8.30;6.90;;;;;;;-128.00;-1.00;-1.00;105932;1250;1055930;-70
2023/10/09 13:59:51;;;;;;;8.20;7.50;;;;;;;-128.00;-1.00;-1.00;105914;1249;1003769;-69
2023/10/09 14:02:18;;;;;;;10.10;9.00;;;;;;;-128.00;-1.00;-1.00;105899;1249;1046706;-69
2023/10/09 14:04:48;;;;;;;9.20;8.30;;;;;;;-128.00;-1.00;-1.00;105932;1249;1004206;-70
2023/10/09 14:07:20;;;;;;;10.80;9.50;;;;;;;-128.00;-1.00;-1.00;105915;1249;1061863;-71
2023/10/09 14:09:55;;;;;;;9.60;8.70;;;;;;;-128.00;-1.00;-1.00;105901;1250;1054821;-71
2023/10/09 14:12:24;;;;;;;8.60;7.70;;;;;;;-128.00;-1.00;-1.00;105927;1249;1059393;-70
2023/10/09 14:14:53;;;;;;;9.20;8.30;;;;;;;-128.00;-1.00;-1.00;105871;1250;1045709;-70